createdAt,value
2023-05-08T00:02:24.724Z,1.42
2023-05-08T00:05:13.983Z,1.36
2023-05-08T00:08:03.089Z,1.36
2023-05-08T00:10:52.497Z,1.38
2023-05-08T00:13:41.734Z,1.39
2023-05-08T00:16:32.978Z,1.40
2023-05-08T00:19:21.885Z,1.40
2023-05-08T00:22:05.399Z,1.38
2023-05-08T00:24:55.219Z,1.40
2023-05-08T00:27:47.264Z,1.44
2023-05-08T00:30:36.392Z,1.49
2023-05-08T00:33:24.776Z,1.55
2023-05-08T00:36:20.328Z,1.56
2023-05-08T00:39:12.140Z,1.54
2023-05-08T00:42:01.145Z,1.53
2023-05-08T00:44:49.689Z,1.53
2023-05-08T00:47:39.269Z,1.51
2023-05-08T00:50:29.243Z,1.46
2023-05-08T00:53:19.809Z,1.41
2023-05-08T00:56:11.536Z,1.35
2023-05-08T00:59:03.477Z,1.29
2023-05-08T01:01:53.470Z,1.26
2023-05-08T01:04:44.142Z,1.21
2023-05-08T01:07:36.229Z,1.13
2023-05-08T01:10:21.283Z,1.07
2023-05-08T01:13:17.282Z,0.98
2023-05-08T01:16:15.480Z,0.91
2023-05-08T01:19:26.507Z,0.85
2023-05-08T01:22:26.779Z,0.79
2023-05-08T01:25:36.705Z,0.75
2023-05-08T01:28:30.087Z,0.71
2023-05-08T01:31:25.583Z,0.72
2023-05-08T01:34:20.352Z,0.70
2023-05-08T01:37:13.379Z,0.67
2023-05-08T01:39:59.647Z,0.65
2023-05-08T01:42:50.923Z,0.63
2023-05-08T01:45:41.181Z,0.61
2023-05-08T01:48:31.246Z,0.61
2023-05-08T01:51:24.804Z,0.61
2023-05-08T01:54:15.916Z,0.61
2023-05-08T01:57:07.341Z,0.59
2023-05-08T02:00:03.589Z,0.61
2023-05-08T02:02:45.513Z,0.64
2023-05-08T02:05:36.935Z,0.72
2023-05-08T02:08:28.966Z,0.75
2023-05-08T02:11:18.842Z,0.75
2023-05-08T02:14:06.689Z,0.75
2023-05-08T02:16:56.470Z,0.73
2023-05-08T02:19:47.257Z,0.77
2023-05-08T02:22:38.765Z,0.89
2023-05-08T02:25:25.693Z,0.98
2023-05-08T02:28:18.144Z,1.07
2023-05-08T02:31:01.567Z,1.13
2023-05-08T02:33:50.913Z,1.22
2023-05-08T02:36:43.955Z,1.21
2023-05-08T02:39:36.139Z,1.14
2023-05-08T02:42:25.716Z,1.12
2023-05-08T02:45:14.538Z,1.03
2023-05-08T02:48:17.835Z,1.00
2023-05-08T02:51:03.279Z,1.01
2023-05-08T02:53:57.214Z,1.00
2023-05-08T02:56:50.249Z,0.96
2023-05-08T02:59:42.512Z,0.90
2023-05-08T03:02:38.227Z,0.82
2023-05-08T03:05:33.167Z,0.79
2023-05-08T03:08:30.105Z,0.78
2023-05-08T03:11:22.159Z,0.73
2023-05-08T03:14:12.539Z,0.67
2023-05-08T03:17:02.306Z,0.60
2023-05-08T03:19:55.085Z,0.59
2023-05-08T03:22:37.975Z,0.65
2023-05-08T03:25:27.820Z,0.64
2023-05-08T03:28:18.775Z,0.60
2023-05-08T03:31:07.567Z,0.57
2023-05-08T03:33:56.683Z,0.58
2023-05-08T03:36:36.710Z,0.59
2023-05-08T03:39:28.150Z,0.59
2023-05-08T03:42:17.190Z,0.59
2023-05-08T03:45:02.811Z,0.57
2023-05-08T03:47:35.857Z,0.59
2023-05-08T03:50:25.632Z,0.63
2023-05-08T03:53:14.406Z,0.67
2023-05-08T03:56:04.116Z,0.66
2023-05-08T03:58:57.362Z,0.68
2023-05-08T04:01:50.972Z,0.72
2023-05-08T04:04:40.171Z,0.77
2023-05-08T04:07:34.131Z,0.88
2023-05-08T04:10:29.390Z,1.11
2023-05-08T04:13:12.747Z,1.61
2023-05-08T04:16:10.509Z,2.51
2023-05-08T04:18:45.896Z,4.03
2023-05-08T04:21:42.730Z,5.58
2023-05-08T04:24:34.733Z,7.06
2023-05-08T04:27:09.775Z,8.27
2023-05-08T04:29:58.769Z,9.33
2023-05-08T04:32:48.323Z,10.38
2023-05-08T04:35:39.456Z,11.26
2023-05-08T04:38:28.909Z,11.29
2023-05-08T04:41:19.346Z,11.27
2023-05-08T04:44:09.796Z,11.57
2023-05-08T04:46:53.431Z,12.15
2023-05-08T04:49:47.626Z,12.99
2023-05-08T04:52:39.567Z,13.95
2023-05-08T04:55:29.607Z,14.92
2023-05-08T04:58:21.639Z,15.54
2023-05-08T05:01:11.786Z,16.24
2023-05-08T05:04:06.127Z,16.98
2023-05-08T05:06:59.279Z,17.57
2023-05-08T05:09:49.920Z,17.97
2023-05-08T05:12:41.002Z,18.29
2023-05-08T05:15:29.905Z,18.48
2023-05-08T05:18:18.967Z,18.71
2023-05-08T05:21:11.996Z,18.90
2023-05-08T05:24:01.227Z,19.25
2023-05-08T05:26:49.540Z,19.36
2023-05-08T05:29:38.135Z,19.49
2023-05-08T05:32:32.959Z,19.53
2023-05-08T05:35:44.825Z,19.20
2023-05-08T05:38:55.109Z,18.28
2023-05-08T05:41:43.752Z,18.13
2023-05-08T05:44:35.282Z,18.15
2023-05-08T05:47:50.131Z,17.94
2023-05-08T05:50:48.271Z,17.69
2023-05-08T05:53:40.776Z,17.01
2023-05-08T05:56:51.382Z,16.53
2023-05-08T05:59:43.506Z,16.02
2023-05-08T06:02:37.568Z,15.45
2023-05-08T06:05:27.502Z,14.91
2023-05-08T06:08:19.035Z,14.37
2023-05-08T06:11:09.094Z,14.09
2023-05-08T06:13:59.678Z,13.77
2023-05-08T06:16:31.851Z,13.42
2023-05-08T06:19:23.868Z,13.08
2023-05-08T06:22:14.029Z,12.80
2023-05-08T06:24:53.929Z,12.61
2023-05-08T06:27:37.313Z,12.43
2023-05-08T06:30:28.324Z,12.30
2023-05-08T06:33:17.938Z,12.15
2023-05-08T06:36:08.933Z,12.00
2023-05-08T06:38:58.721Z,11.80
2023-05-08T06:41:48.394Z,11.64
2023-05-08T06:44:36.772Z,11.61
2023-05-08T06:47:26.153Z,11.53
2023-05-08T06:50:14.464Z,11.48
2023-05-08T06:52:57.114Z,11.47
2023-05-08T06:55:45.604Z,11.50
2023-05-08T06:58:35.539Z,11.58
2023-05-08T07:01:24.466Z,11.55
2023-05-08T07:04:13.697Z,11.46
2023-05-08T07:07:02.219Z,11.52
2023-05-08T07:09:31.527Z,11.62
2023-05-08T07:12:20.936Z,11.60
2023-05-08T07:15:18.191Z,11.46
2023-05-08T07:18:18.858Z,11.44
2023-05-08T07:21:11.578Z,11.43
2023-05-08T07:24:00.169Z,11.52
2023-05-08T07:26:49.266Z,11.63
2023-05-08T07:29:37.182Z,11.73
2023-05-08T07:32:25.521Z,11.81
2023-05-08T07:35:02.104Z,11.90
2023-05-08T07:37:50.497Z,12.01
2023-05-08T07:40:38.785Z,12.08
2023-05-08T07:43:29.140Z,12.13
2023-05-08T07:45:58.001Z,12.13
2023-05-08T07:48:46.999Z,12.18
2023-05-08T07:51:35.627Z,12.23
2023-05-08T07:54:26.548Z,12.29
2023-05-08T07:57:15.156Z,12.39
2023-05-08T08:00:05.916Z,12.35
2023-05-08T08:02:54.978Z,12.28
2023-05-08T08:05:44.936Z,12.28
2023-05-08T08:08:35.410Z,12.30
2023-05-08T08:11:23.657Z,12.38
2023-05-08T08:14:12.092Z,12.46
2023-05-08T08:17:01.011Z,12.42
2023-05-08T08:19:39.661Z,12.38
2023-05-08T08:22:30.377Z,12.41
2023-05-08T08:25:08.937Z,12.29
2023-05-08T08:27:52.683Z,12.17
2023-05-08T08:30:35.007Z,12.26
2023-05-08T08:33:19.100Z,12.45
2023-05-08T08:35:52.674Z,12.52
2023-05-08T08:38:36.591Z,12.63
2023-05-08T08:41:24.993Z,12.70
2023-05-08T08:44:15.421Z,12.94
2023-05-08T08:47:05.975Z,13.24
2023-05-08T08:49:49.121Z,13.53
2023-05-08T08:52:41.274Z,13.70
2023-05-08T08:55:20.601Z,14.00
2023-05-08T08:58:15.261Z,14.41
2023-05-08T09:00:58.061Z,14.72
2023-05-08T09:03:37.913Z,15.10
2023-05-08T09:06:27.339Z,15.41
2023-05-08T09:09:16.258Z,15.70
2023-05-08T09:12:04.000Z,15.58
2023-05-08T09:14:52.732Z,15.34
2023-05-08T09:17:34.912Z,15.33
2023-05-08T09:20:23.344Z,15.73
2023-05-08T09:23:14.110Z,16.21
2023-05-08T09:26:03.856Z,16.37
2023-05-08T09:28:45.905Z,16.24
2023-05-08T09:31:39.253Z,16.51
2023-05-08T09:34:28.839Z,16.60
2023-05-08T09:37:17.197Z,16.55
2023-05-08T09:40:15.447Z,16.22
2023-05-08T09:43:12.940Z,15.88
2023-05-08T09:46:20.040Z,15.66
2023-05-08T09:49:17.264Z,15.52
2023-05-08T09:52:05.832Z,15.59
2023-05-08T09:54:58.825Z,15.73
2023-05-08T09:57:52.828Z,16.13
2023-05-08T10:00:40.870Z,16.16
2023-05-08T10:03:43.738Z,16.04
2023-05-08T10:06:25.044Z,15.93
2023-05-08T10:09:14.529Z,16.03
2023-05-08T10:11:56.603Z,15.98
2023-05-08T10:14:27.482Z,15.78
2023-05-08T10:17:19.694Z,15.59
2023-05-08T10:20:09.775Z,15.54
2023-05-08T10:22:58.333Z,15.67
2023-05-08T10:25:42.483Z,16.00
2023-05-08T10:28:33.933Z,16.29
2023-05-08T10:31:04.796Z,16.39
2023-05-08T10:33:45.930Z,16.41
2023-05-08T10:36:35.543Z,16.30
2023-05-08T10:39:05.952Z,16.05
2023-05-08T10:41:36.024Z,15.70
2023-05-08T10:44:16.433Z,15.67
2023-05-08T10:47:10.068Z,15.74
2023-05-08T10:50:01.903Z,15.88
2023-05-08T10:52:56.673Z,15.93
2023-05-08T10:55:47.191Z,16.04
2023-05-08T10:58:36.677Z,16.22
2023-05-08T11:01:26.069Z,16.16
2023-05-08T11:03:55.317Z,16.03
2023-05-08T11:06:45.889Z,15.94
2023-05-08T11:09:46.277Z,16.07
2023-05-08T11:12:45.544Z,16.48
2023-05-08T11:15:37.222Z,16.93
2023-05-08T11:18:32.549Z,17.29
2023-05-08T11:21:30.149Z,17.67
2023-05-08T11:24:18.895Z,18.02
2023-05-08T11:27:03.210Z,18.37
2023-05-08T11:30:05.526Z,18.70
2023-05-08T11:32:50.463Z,18.83
2023-05-08T11:35:40.569Z,18.67
2023-05-08T11:38:32.770Z,18.57
2023-05-08T11:41:22.283Z,18.63
2023-05-08T11:44:16.926Z,18.77
2023-05-08T11:47:06.439Z,18.90
2023-05-08T11:49:56.074Z,19.10
2023-05-08T11:52:35.329Z,19.14
2023-05-08T11:55:13.263Z,19.10
2023-05-08T11:57:41.486Z,19.12
2023-05-08T12:00:11.478Z,19.09
2023-05-08T12:02:45.457Z,19.03
2023-05-08T12:05:26.157Z,18.95
2023-05-08T12:07:57.138Z,18.89
2023-05-08T12:10:28.475Z,18.83
2023-05-08T12:13:17.000Z,18.75
2023-05-08T12:15:49.259Z,18.77
2023-05-08T12:18:31.300Z,18.68
2023-05-08T12:21:21.427Z,18.59
2023-05-08T12:23:53.804Z,18.56
2023-05-08T12:26:22.249Z,18.64
2023-05-08T12:29:06.087Z,18.79
2023-05-08T12:31:40.802Z,18.85
2023-05-08T12:34:19.651Z,18.79
2023-05-08T12:36:48.567Z,18.75
2023-05-08T12:39:44.278Z,18.71
2023-05-08T12:42:12.165Z,18.64
2023-05-08T12:44:49.814Z,18.50
2023-05-08T12:47:38.005Z,18.51
2023-05-08T12:50:26.387Z,18.54
2023-05-08T12:52:54.473Z,18.60
2023-05-08T12:55:52.152Z,18.64
2023-05-08T12:58:40.348Z,18.67
2023-05-08T13:01:20.359Z,18.77
2023-05-08T13:04:08.367Z,18.83
2023-05-08T13:06:54.506Z,18.83
2023-05-08T13:09:31.291Z,18.79
2023-05-08T13:12:02.240Z,18.83
2023-05-08T13:14:33.891Z,19.00
2023-05-08T13:17:02.050Z,18.92
2023-05-08T13:19:30.629Z,18.66
2023-05-08T13:22:03.730Z,18.43
2023-05-08T13:24:43.679Z,18.26
2023-05-08T13:27:14.303Z,18.17
2023-05-08T13:29:42.583Z,18.18
2023-05-08T13:32:14.946Z,18.01
2023-05-08T13:35:01.219Z,17.82
2023-05-08T13:37:51.751Z,17.70
2023-05-08T13:40:27.826Z,17.62
2023-05-08T13:43:07.174Z,17.71
2023-05-08T13:45:51.088Z,17.91
2023-05-08T13:48:20.051Z,18.04
2023-05-08T13:50:57.960Z,17.92
2023-05-08T13:53:47.375Z,17.81
2023-05-08T13:56:37.964Z,17.81
2023-05-08T13:59:17.612Z,17.81
2023-05-08T14:01:50.524Z,17.83
2023-05-08T14:04:18.869Z,17.89
2023-05-08T14:06:46.919Z,17.96
2023-05-08T14:09:24.522Z,17.95
2023-05-08T14:11:52.423Z,17.85
2023-05-08T14:14:42.423Z,17.77
2023-05-08T14:17:11.480Z,17.74
2023-05-08T14:19:42.474Z,17.75
2023-05-08T14:22:30.612Z,17.68
2023-05-08T14:25:02.012Z,17.62
2023-05-08T14:27:38.501Z,17.59
2023-05-08T14:30:35.982Z,17.63
2023-05-08T14:33:06.348Z,17.64
2023-05-08T14:35:34.663Z,17.57
2023-05-08T14:38:06.073Z,17.39
2023-05-08T14:40:44.130Z,17.18
2023-05-08T14:43:42.273Z,17.00
2023-05-08T14:46:30.798Z,16.99
2023-05-08T14:49:32.872Z,16.95
2023-05-08T14:52:14.899Z,16.85
2023-05-08T14:54:54.601Z,16.73
2023-05-08T14:57:43.541Z,16.58
2023-05-08T15:00:31.804Z,16.53
2023-05-08T15:03:00.644Z,16.52
2023-05-08T15:05:43.206Z,16.41
2023-05-08T15:08:31.623Z,16.20
2023-05-08T15:13:54.145Z,15.91
2023-05-08T15:16:36.488Z,15.81
2023-05-08T15:19:08.882Z,15.73
2023-05-08T15:21:57.395Z,15.70
2023-05-08T15:24:41.439Z,15.67
2023-05-08T15:27:23.515Z,15.65
2023-05-08T15:30:13.001Z,15.60
2023-05-08T15:33:02.495Z,15.49
2023-05-08T15:35:51.380Z,15.35
2023-05-08T15:38:40.598Z,15.22
2023-05-08T15:41:21.286Z,15.13
2023-05-08T15:44:00.986Z,15.10
2023-05-08T15:46:34.836Z,15.10
2023-05-08T15:49:16.074Z,15.11
2023-05-08T15:51:46.546Z,15.15
2023-05-08T15:54:34.670Z,15.19
2023-05-08T15:57:23.084Z,15.24
2023-05-08T16:00:12.475Z,15.23
2023-05-08T16:03:00.959Z,15.24
2023-05-08T16:05:51.403Z,15.24
2023-05-08T16:08:35.593Z,15.21
2023-05-08T16:11:08.716Z,15.15
2023-05-08T16:13:38.039Z,15.09
2023-05-08T16:16:18.672Z,15.04
2023-05-08T16:18:46.951Z,14.95
2023-05-08T16:21:25.700Z,14.81
2023-05-08T16:23:56.947Z,14.65
2023-05-08T16:26:36.220Z,14.51
2023-05-08T16:29:07.978Z,14.37
2023-05-08T16:31:57.062Z,14.23
2023-05-08T16:34:46.230Z,14.10
2023-05-08T16:37:36.805Z,13.97
2023-05-08T16:40:25.827Z,13.85
2023-05-08T16:42:57.596Z,13.79
2023-05-08T16:45:27.154Z,13.72
2023-05-08T16:48:06.116Z,13.64
2023-05-08T16:50:34.937Z,13.55
2023-05-08T16:53:15.222Z,13.48
2023-05-08T16:55:56.321Z,13.40
2023-05-08T16:58:47.267Z,13.33
2023-05-08T17:01:38.006Z,13.23
2023-05-08T17:04:13.633Z,13.14
2023-05-08T17:07:04.476Z,13.11
2023-05-08T17:09:35.069Z,13.09
2023-05-08T17:12:15.869Z,13.05
2023-05-08T17:14:59.967Z,13.00
2023-05-08T17:17:50.734Z,12.92
2023-05-08T17:20:22.029Z,12.88
2023-05-08T17:22:53.562Z,12.82
2023-05-08T17:25:34.878Z,12.75
2023-05-08T17:28:25.625Z,12.68
2023-05-08T17:30:59.013Z,12.62
2023-05-08T17:33:38.480Z,12.54
2023-05-08T17:36:28.292Z,12.43
2023-05-08T17:39:19.419Z,12.30
2023-05-08T17:41:53.979Z,12.18
2023-05-08T17:44:44.480Z,12.06
2023-05-08T17:47:34.690Z,11.91
2023-05-08T17:50:24.570Z,11.72
2023-05-08T17:52:54.970Z,11.54
2023-05-08T17:55:44.948Z,11.35
2023-05-08T17:58:36.996Z,11.16
2023-05-08T18:01:31.804Z,10.97
2023-05-08T18:04:13.845Z,10.80
2023-05-08T18:07:03.479Z,10.63
2023-05-08T18:09:44.487Z,10.49
2023-05-08T18:12:16.335Z,10.36
2023-05-08T18:15:06.306Z,10.20
2023-05-08T18:17:54.892Z,10.03
2023-05-08T18:20:38.224Z,9.89
2023-05-08T18:23:31.088Z,9.74
2023-05-08T18:26:21.422Z,9.60
2023-05-08T18:29:10.608Z,9.45
2023-05-08T18:31:58.351Z,9.29
2023-05-08T18:34:47.040Z,9.12
2023-05-08T18:37:26.208Z,9.00
2023-05-08T18:40:14.818Z,8.90
2023-05-08T18:43:03.037Z,8.81
2023-05-08T18:45:52.622Z,8.72
2023-05-08T18:48:41.387Z,8.62
2023-05-08T18:51:31.772Z,8.49
2023-05-08T18:54:26.426Z,8.33
2023-05-08T18:57:15.003Z,8.18
2023-05-08T19:00:09.332Z,8.03
2023-05-08T19:03:01.339Z,7.92
2023-05-08T19:05:50.680Z,7.83
2023-05-08T19:08:30.335Z,7.74
2023-05-08T19:11:18.384Z,7.66
2023-05-08T19:14:06.585Z,7.56
2023-05-08T19:16:55.035Z,7.47
2023-05-08T19:19:45.254Z,7.39
2023-05-08T19:22:35.867Z,7.29
2023-05-08T19:25:25.245Z,7.19
2023-05-08T19:28:12.286Z,7.12
2023-05-08T19:31:06.796Z,7.07
2023-05-08T19:33:54.302Z,7.00
2023-05-08T19:36:42.624Z,6.94
2023-05-08T19:39:29.970Z,6.87
2023-05-08T19:42:03.252Z,6.76
2023-05-08T19:44:51.364Z,6.66
2023-05-08T19:47:43.287Z,6.60
2023-05-08T19:50:31.618Z,6.52
2023-05-08T19:53:19.693Z,6.45
2023-05-08T19:56:07.970Z,6.39
2023-05-08T19:58:55.043Z,6.31
2023-05-08T20:01:29.050Z,6.25
2023-05-08T20:04:17.400Z,6.19
2023-05-08T20:07:06.373Z,6.12
2023-05-08T20:09:55.543Z,6.04
2023-05-08T20:12:44.367Z,5.99
2023-05-08T20:15:35.085Z,5.93
2023-05-08T20:18:07.218Z,5.87
2023-05-08T20:20:45.497Z,5.82
2023-05-08T20:23:24.425Z,5.76
2023-05-08T20:26:04.930Z,5.70
2023-05-08T20:28:54.178Z,5.63
2023-05-08T20:31:40.434Z,5.60
2023-05-08T20:34:12.024Z,5.56
2023-05-08T20:36:46.037Z,5.51
2023-05-08T20:39:31.083Z,5.46
2023-05-08T20:42:19.645Z,5.41
2023-05-08T20:44:49.898Z,5.37
2023-05-08T20:47:35.179Z,5.33
2023-05-08T20:50:15.542Z,5.29
2023-05-08T20:52:58.016Z,5.22
2023-05-08T20:55:47.869Z,5.15
2023-05-08T20:58:34.744Z,5.10
2023-05-08T21:01:23.990Z,5.04
2023-05-08T21:04:12.737Z,4.98
2023-05-08T21:06:54.752Z,4.93
2023-05-08T21:09:22.932Z,4.89
2023-05-08T21:12:12.077Z,4.86
2023-05-08T21:15:06.344Z,4.82
2023-05-08T21:17:37.599Z,4.80
2023-05-08T21:20:08.428Z,4.77
2023-05-08T21:22:56.725Z,4.74
2023-05-08T21:25:27.098Z,4.71
2023-05-08T21:28:15.953Z,4.66
2023-05-08T21:30:47.723Z,4.63
2023-05-08T21:33:26.778Z,4.59
2023-05-08T21:35:54.877Z,4.55
2023-05-08T21:38:42.081Z,4.47
2023-05-08T21:41:16.091Z,4.40
2023-05-08T21:43:47.924Z,4.36
2023-05-08T21:46:46.425Z,4.32
2023-05-08T21:49:52.629Z,4.30
2023-05-08T21:52:33.851Z,4.26
2023-05-08T21:55:24.544Z,4.23
2023-05-08T21:58:13.171Z,4.20
2023-05-08T22:00:50.227Z,4.16
2023-05-08T22:03:24.486Z,4.13
2023-05-08T22:06:26.504Z,4.08
2023-05-08T22:09:15.555Z,4.02
2023-05-08T22:12:05.930Z,3.96
2023-05-08T22:14:54.278Z,3.93
2023-05-08T22:17:22.557Z,3.91
2023-05-08T22:19:58.026Z,3.88
2023-05-08T22:22:36.013Z,3.85
2023-05-08T22:25:26.433Z,3.82
2023-05-08T22:28:13.274Z,3.74
2023-05-08T22:30:50.483Z,3.67
2023-05-08T22:33:24.376Z,3.60
2023-05-08T22:36:24.862Z,3.59
2023-05-08T22:38:53.906Z,3.59
2023-05-08T22:41:34.163Z,3.58
2023-05-08T22:44:22.688Z,3.56
2023-05-08T22:46:59.116Z,3.53
2023-05-08T22:49:33.842Z,3.51
2023-05-08T22:52:13.627Z,3.47
2023-05-08T22:54:50.597Z,3.45
2023-05-08T22:57:37.609Z,3.44
2023-05-08T23:00:07.662Z,3.41
2023-05-08T23:02:50.688Z,3.39
2023-05-08T23:05:40.882Z,3.36
2023-05-08T23:08:29.116Z,3.31
2023-05-08T23:11:17.922Z,3.27
2023-05-08T23:14:08.147Z,3.26
2023-05-08T23:16:56.966Z,3.25
2023-05-08T23:19:45.611Z,3.23
2023-05-08T23:22:36.314Z,3.22
2023-05-08T23:25:36.987Z,3.20
2023-05-08T23:28:27.263Z,3.18
2023-05-08T23:31:17.356Z,3.15
2023-05-08T23:34:08.168Z,3.12
2023-05-08T23:36:58.282Z,3.06
2023-05-08T23:39:40.820Z,3.02
2023-05-08T23:42:20.382Z,2.98
2023-05-08T23:45:10.502Z,2.95
2023-05-08T23:47:42.714Z,2.92
2023-05-08T23:50:31.358Z,2.88
2023-05-08T23:53:19.454Z,2.86
2023-05-08T23:55:58.878Z,2.83
2023-05-08T23:58:47.719Z,2.80
